Time;durP1;ratioP1;P1;durP2;ratioP2;P2;SDS_P1;SDS_P2;PMS_P1;PMS_P2;Temp;Humidity;BMP_temperature;BMP_pressure;BME280_temperature;BME280_humidity;BME280_pressure;Samples;Min_cycle;Max_cycle;Signal;HPM_P1;HPM_P2
2021/10/03 00:01:32;;;;;;;4.55;2.63;;;;;;;12.87;80.41;95897.91;4983866;28;20042;-60
2021/10/03 00:04:19;;;;;;;4.45;2.15;;;;;;;12.91;78.76;95903.38;4987595;28;20048;-61
2021/10/03 00:07:04;;;;;;;4.90;3.15;;;;;;;12.94;81.06;95897.09;4973909;28;20539;-61
2021/10/03 00:09:52;;;;;;;5.55;2.60;;;;;;;12.79;81.05;95899.13;4994969;28;20133;-61
2021/10/03 00:12:39;;;;;;;3.80;2.40;;;;;;;12.62;82.26;95889.78;4990923;28;20041;-61
2021/10/03 00:15:24;;;;;;;4.60;2.80;;;;;;;12.67;84.49;95896.84;4988927;28;20060;-60
2021/10/03 00:18:12;;;;;;;4.28;2.67;;;;;;;12.70;81.26;95885.84;4981966;28;20632;-60
2021/10/03 00:20:58;;;;;;;6.10;3.13;;;;;;;12.64;81.23;95895.69;4992875;28;20100;-59
2021/10/03 00:23:44;;;;;;;5.03;3.13;;;;;;;12.72;79.27;95888.19;4994648;28;20054;-60
2021/10/03 00:26:29;;;;;;;4.55;2.20;;;;;;;13.18;75.54;95876.09;4995457;28;20128;-59
2021/10/03 00:29:16;;;;;;;6.95;2.63;;;;;;;13.19;75.55;95886.72;4992894;28;20046;-60
2021/10/03 00:32:03;;;;;;;5.28;2.65;;;;;;;13.15;76.13;95883.22;4997772;28;20049;-60
2021/10/03 00:34:49;;;;;;;7.05;2.60;;;;;;;12.96;77.62;95883.72;4997713;28;20054;-59
2021/10/03 00:37:35;;;;;;;5.38;2.70;;;;;;;12.84;80.64;95884.19;4997422;28;20042;-57
2021/10/03 00:40:22;;;;;;;5.43;2.60;;;;;;;12.93;76.73;95882.56;4995913;28;20069;-60
2021/10/03 00:43:11;;;;;;;4.68;2.60;;;;;;;13.16;75.83;95879.28;4951548;28;20399;-59
2021/10/03 00:45:57;;;;;;;7.38;2.60;;;;;;;13.17;75.86;95869.84;4984574;28;20038;-60
2021/10/03 00:48:43;;;;;;;4.90;2.30;;;;;;;13.23;74.69;95864.69;4993365;28;20693;-59
2021/10/03 00:51:28;;;;;;;6.07;2.63;;;;;;;13.14;75.53;95865.16;4995973;28;20054;-58
2021/10/03 00:54:14;;;;;;;4.03;2.40;;;;;;;13.15;75.61;95863.97;4990880;28;20042;-59
2021/10/03 00:57:00;;;;;;;7.53;2.60;;;;;;;13.48;73.62;95859.00;4994506;28;20046;-60
2021/10/03 00:59:46;;;;;;;3.50;2.38;;;;;;;13.68;72.10;95853.72;4980606;28;20073;-61
2021/10/03 01:02:32;;;;;;;4.20;2.17;;;;;;;13.61;72.41;95856.53;4978573;28;20041;-60
2021/10/03 01:05:18;;;;;;;4.57;2.72;;;;;;;13.51;73.64;95851.94;4970237;28;20042;-60
2021/10/03 01:08:04;;;;;;;3.85;2.33;;;;;;;13.39;73.58;95848.47;4968774;28;20039;-61
2021/10/03 01:10:50;;;;;;;3.92;2.30;;;;;;;13.67;71.58;95852.19;4978367;28;20053;-60
2021/10/03 01:13:36;;;;;;;4.72;2.42;;;;;;;13.51;73.88;95852.72;5002511;28;20136;-60
2021/10/03 01:16:21;;;;;;;3.42;2.35;;;;;;;13.53;73.37;95853.06;4995799;28;20049;-65
2021/10/03 01:19:08;;;;;;;8.27;3.22;;;;;;;13.50;75.13;95853.13;4992159;28;20046;-60
2021/10/03 01:21:54;;;;;;;5.60;2.42;;;;;;;13.35;75.32;95858.72;4997867;28;20062;-60
2021/10/03 01:24:40;;;;;;;5.03;2.67;;;;;;;13.21;77.81;95853.31;4984998;28;20042;-61
2021/10/03 01:27:26;;;;;;;5.78;2.88;;;;;;;13.10;79.39;95863.63;4984734;28;20045;-61
2021/10/03 01:30:17;;;;;;;5.93;2.88;;;;;;;13.06;79.81;95860.13;5005686;28;20581;-61
2021/10/03 01:33:04;;;;;;;6.95;3.33;;;;;;;12.84;81.75;95864.94;5011483;28;20041;-61
2021/10/03 01:35:50;;;;;;;5.78;3.10;;;;;;;12.80;82.97;95851.22;5010927;28;20041;-61
2021/10/03 01:38:37;;;;;;;6.40;3.15;;;;;;;12.71;83.45;95857.19;4986071;28;20050;-60
2021/10/03 01:41:22;;;;;;;5.88;3.00;;;;;;;12.53;85.00;95857.28;4988477;28;20962;-61
2021/10/03 01:44:08;;;;;;;5.88;3.47;;;;;;;12.45;86.20;95844.75;4986406;28;20049;-61
2021/10/03 01:46:54;;;;;;;7.95;3.92;;;;;;;12.22;87.80;95845.25;4997541;28;20045;-58
2021/10/03 01:49:40;;;;;;;6.60;3.95;;;;;;;12.09;88.93;95841.38;4991914;28;20129;-61
2021/10/03 01:52:25;;;;;;;7.30;3.97;;;;;;;11.96;90.85;95839.06;4987554;28;20046;-59
2021/10/03 01:55:15;;;;;;;7.85;3.85;;;;;;;12.00;91.06;95830.81;4985406;28;20046;-60
2021/10/03 01:58:01;;;;;;;7.03;4.18;;;;;;;11.86;91.74;95834.34;5000949;28;20045;-58
2021/10/03 02:00:51;;;;;;;8.38;4.15;;;;;;;11.65;93.14;95829.69;4993401;28;20049;-57
2021/10/03 02:03:37;;;;;;;8.52;3.92;;;;;;;11.27;95.03;95832.06;4994673;28;20076;-58
2021/10/03 02:06:24;;;;;;;7.93;4.13;;;;;;;11.31;96.34;95821.09;4988811;28;21009;-60
2021/10/03 02:09:12;;;;;;;8.82;3.97;;;;;;;11.35;95.14;95825.41;4972663;28;20038;-61
2021/10/03 02:11:59;;;;;;;5.35;3.83;;;;;;;11.27;96.23;95823.84;4979166;28;20043;-60
2021/10/03 02:14:45;;;;;;;12.05;4.70;;;;;;;11.23;97.24;95823.84;4977718;28;20065;-59
2021/10/03 02:17:31;;;;;;;5.97;3.92;;;;;;;11.35;96.49;95811.72;4975389;28;20057;-59
2021/10/03 02:20:18;;;;;;;9.10;4.18;;;;;;;11.34;96.38;95815.63;4968714;28;20043;-60
2021/10/03 02:23:06;;;;;;;6.30;3.70;;;;;;;11.30;96.87;95820.34;4974253;28;20432;-61
2021/10/03 02:25:52;;;;;;;6.43;4.10;;;;;;;11.34;96.54;95823.84;4975087;28;20065;-60
2021/10/03 02:28:38;;;;;;;8.32;3.92;;;;;;;10.96;98.17;95811.72;4975951;28;20125;-60
2021/10/03 02:31:24;;;;;;;8.80;4.00;;;;;;;10.94;99.80;95812.09;4971137;28;20066;-61
2021/10/03 02:34:10;;;;;;;6.38;4.00;;;;;;;11.04;99.24;95816.03;4970925;28;20372;-60
2021/10/03 02:36:56;;;;;;;6.45;4.07;;;;;;;11.04;99.26;95816.03;4977575;28;20050;-63
2021/10/03 02:39:42;;;;;;;6.10;3.92;;;;;;;11.16;98.80;95815.63;4995236;28;20555;-61
2021/10/03 02:42:28;;;;;;;5.68;3.75;;;;;;;11.17;98.53;95802.72;4995204;28;20073;-60
2021/10/03 02:45:14;;;;;;;7.90;4.07;;;;;;;11.19;98.43;95798.41;4977936;28;20120;-59
2021/10/03 02:47:59;;;;;;;6.32;3.78;;;;;;;11.22;98.49;95791.38;5000792;28;20041;-62
2021/10/03 02:50:46;;;;;;;6.32;4.00;;;;;;;11.22;98.51;95785.88;4996832;28;20056;-60
2021/10/03 02:53:32;;;;;;;6.60;4.30;;;;;;;11.23;97.79;95780.00;4993702;28;20046;-60
2021/10/03 02:56:20;;;;;;;10.27;4.18;;;;;;;11.17;98.36;95789.03;4986447;28;20209;-60
2021/10/03 02:59:06;;;;;;;8.80;3.80;;;;;;;11.15;99.03;95780.41;4984544;28;20044;-57
2021/10/03 03:01:51;;;;;;;5.60;3.58;;;;;;;11.15;98.25;95778.44;4993662;28;20099;-60
2021/10/03 03:04:37;;;;;;;6.45;3.72;;;;;;;11.07;98.40;95788.63;4993772;28;20227;-62
2021/10/03 03:07:23;;;;;;;7.50;3.92;;;;;;;11.00;99.00;95783.16;5027324;23;20096;-62
2021/10/03 03:10:09;;;;;;;6.88;3.70;;;;;;;10.92;99.75;95784.31;5002934;28;20038;-65
2021/10/03 03:12:55;;;;;;;6.47;3.50;;;;;;;10.91;100.00;95788.22;5000639;28;20071;-63
2021/10/03 03:15:40;;;;;;;6.28;3.92;;;;;;;10.83;100.00;95786.66;5015094;28;20041;-66
2021/10/03 03:18:26;;;;;;;7.50;4.10;;;;;;;10.75;100.00;95779.59;4987283;28;20073;-65
2021/10/03 03:21:12;;;;;;;7.90;4.28;;;;;;;10.68;100.00;95774.94;4988500;28;20042;-63
2021/10/03 03:23:58;;;;;;;6.70;3.92;;;;;;;10.38;100.00;95776.03;4990805;28;20646;-66
2021/10/03 03:26:44;;;;;;;7.47;3.90;;;;;;;10.31;100.00;95776.03;5019298;28;20129;-66
2021/10/03 03:29:29;;;;;;;9.40;5.13;;;;;;;10.16;100.00;95769.69;5017564;28;20051;-65
2021/10/03 03:32:15;;;;;;;11.32;4.60;;;;;;;10.25;100.00;95764.63;5013301;28;20045;-64
2021/10/03 03:35:02;;;;;;;7.07;4.35;;;;;;;10.37;100.00;95766.28;5028289;28;20061;-64
2021/10/03 03:37:48;;;;;;;9.85;4.28;;;;;;;10.55;100.00;95768.25;5017865;28;20045;-64
2021/10/03 03:40:34;;;;;;;6.78;4.10;;;;;;;10.68;100.00;95770.22;5021336;28;20127;-65
2021/10/03 03:43:20;;;;;;;10.20;4.30;;;;;;;10.81;100.00;95764.38;5024400;28;20029;-66
2021/10/03 03:46:05;;;;;;;7.28;3.97;;;;;;;10.78;100.00;95765.91;5028764;28;20044;-66
2021/10/03 03:48:51;;;;;;;10.00;4.30;;;;;;;10.83;100.00;95762.00;5027683;28;20044;-65
2021/10/03 03:51:37;;;;;;;8.02;4.10;;;;;;;10.87;100.00;95752.59;5031900;28;20131;-65
2021/10/03 03:54:23;;;;;;;7.03;4.25;;;;;;;10.47;100.00;95756.50;5011764;28;20427;-63
2021/10/03 03:57:09;;;;;;;7.75;3.83;;;;;;;10.41;100.00;95753.38;5013070;28;20037;-65
2021/10/03 03:59:54;;;;;;;7.72;4.43;;;;;;;10.48;100.00;95758.09;5018766;28;20053;-64
2021/10/03 04:02:40;;;;;;;10.57;4.63;;;;;;;10.64;100.00;95761.22;5023891;28;20041;-64
2021/10/03 04:05:26;;;;;;;9.40;4.93;;;;;;;10.46;100.00;95750.25;5027217;28;20077;-64
2021/10/03 04:08:12;;;;;;;6.30;4.10;;;;;;;10.43;100.00;95748.28;5014003;28;20057;-65
2021/10/03 04:10:57;;;;;;;9.18;4.40;;;;;;;10.57;100.00;95738.50;5029943;28;20049;-64
2021/10/03 04:13:43;;;;;;;6.00;4.07;;;;;;;10.60;100.00;95738.50;5031969;28;20108;-65
2021/10/03 04:16:29;;;;;;;5.50;3.67;;;;;;;10.28;100.00;95743.91;5027982;28;20051;-64
2021/10/03 04:19:14;;;;;;;6.60;3.45;;;;;;;10.05;100.00;95736.06;5016711;28;20041;-66
2021/10/03 04:22:00;;;;;;;6.80;4.07;;;;;;;9.82;100.00;95741.84;5028208;28;20042;-65
2021/10/03 04:24:46;;;;;;;7.82;4.22;;;;;;;9.93;100.00;95739.91;5032450;28;20112;-65
2021/10/03 04:27:32;;;;;;;7.65;3.70;;;;;;;9.99;100.00;95732.91;5025343;28;20049;-66
2021/10/03 04:30:17;;;;;;;8.32;4.22;;;;;;;10.26;100.00;95730.66;5015285;28;20037;-64
2021/10/03 04:33:03;;;;;;;14.60;4.30;;;;;;;10.49;100.00;95732.25;5020999;28;20056;-63
2021/10/03 04:35:49;;;;;;;7.13;3.85;;;;;;;10.52;100.00;95723.28;5019554;28;20064;-65
2021/10/03 04:38:35;;;;;;;7.80;4.28;;;;;;;10.51;100.00;95727.16;5028868;28;20047;-65
2021/10/03 04:41:21;;;;;;;6.82;3.45;;;;;;;10.57;100.00;95722.88;5023708;28;22666;-65
2021/10/03 04:44:07;;;;;;;6.30;4.10;;;;;;;10.60;100.00;95721.31;5015706;28;20550;-66
2021/10/03 04:46:52;;;;;;;10.13;3.83;;;;;;;10.55;100.00;95729.91;5033031;28;20055;-65
2021/10/03 04:49:38;;;;;;;6.38;3.53;;;;;;;10.59;100.00;95728.75;5036458;28;20409;-66
2021/10/03 04:52:27;;;;;;;7.53;3.65;;;;;;;10.62;100.00;95725.22;5035470;28;20771;-66
2021/10/03 04:55:12;;;;;;;6.03;3.67;;;;;;;10.79;100.00;95718.19;5014278;28;20070;-65
2021/10/03 04:57:58;;;;;;;6.28;3.50;;;;;;;10.86;100.00;95715.44;5028191;28;20044;-65
2021/10/03 05:00:44;;;;;;;18.90;3.83;;;;;;;10.88;100.00;95712.31;5032091;28;20125;-65
2021/10/03 05:03:30;;;;;;;8.52;3.38;;;;;;;10.86;100.00;95717.41;5029747;28;20041;-65
2021/10/03 05:06:16;;;;;;;6.47;3.78;;;;;;;10.83;100.00;95718.19;4998430;28;20053;-65
2021/10/03 05:09:02;;;;;;;5.72;3.28;;;;;;;10.77;100.00;95719.75;5023345;28;20077;-65
2021/10/03 05:11:48;;;;;;;7.60;3.75;;;;;;;10.70;100.00;95717.81;5022719;28;20570;-66
2021/10/03 05:14:34;;;;;;;6.82;3.92;;;;;;;10.66;100.00;95711.53;5017620;28;20425;-66
2021/10/03 05:17:20;;;;;;;6.25;3.67;;;;;;;10.84;100.00;95711.53;5018472;28;20043;-66
2021/10/03 05:20:06;;;;;;;7.57;3.80;;;;;;;10.96;100.00;95705.66;5021554;28;20401;-66
2021/10/03 05:22:51;;;;;;;6.28;3.33;;;;;;;10.99;100.00;95706.84;5017972;28;20045;-65
2021/10/03 05:25:37;;;;;;;8.30;4.03;;;;;;;10.95;100.00;95708.78;5007639;28;20104;-65
2021/10/03 05:28:23;;;;;;;5.70;3.67;;;;;;;11.01;100.00;95707.22;4994234;28;20512;-65
2021/10/03 05:31:08;;;;;;;5.80;3.88;;;;;;;10.99;100.00;95696.66;4990371;28;20033;-65
2021/10/03 05:33:55;;;;;;;6.00;4.05;;;;;;;11.01;100.00;95704.47;5025815;28;20065;-64
2021/10/03 05:36:41;;;;;;;7.65;4.30;;;;;;;11.15;100.00;95701.72;5033154;28;20110;-64
2021/10/03 05:39:27;;;;;;;6.70;3.47;;;;;;;11.18;99.75;95714.63;5013779;28;20637;-65
2021/10/03 05:42:12;;;;;;;6.63;3.63;;;;;;;11.25;99.21;95709.13;5009169;28;20045;-65
2021/10/03 05:44:58;;;;;;;6.95;3.42;;;;;;;11.31;98.85;95712.25;5029290;28;20045;-65
2021/10/03 05:47:44;;;;;;;7.05;4.15;;;;;;;11.24;98.55;95712.28;5024953;28;20045;-65
2021/10/03 05:50:29;;;;;;;6.63;3.85;;;;;;;11.32;98.34;95727.50;5033048;28;20052;-64
2021/10/03 05:53:15;;;;;;;5.78;3.13;;;;;;;11.41;97.98;95721.63;5025566;28;20041;-64
2021/10/03 05:56:02;;;;;;;5.47;3.45;;;;;;;11.28;98.69;95719.28;5010632;28;20064;-65
2021/10/03 05:58:47;;;;;;;6.18;3.58;;;;;;;11.16;99.59;95721.66;5024227;28;20048;-65
2021/10/03 06:01:33;;;;;;;5.93;3.35;;;;;;;11.27;99.83;95728.72;5036694;28;20045;-65
2021/10/03 06:04:19;;;;;;;4.38;2.92;;;;;;;11.46;99.07;95724.72;5021748;28;20132;-67
2021/10/03 06:07:05;;;;;;;5.20;3.08;;;;;;;11.64;98.03;95726.66;5020494;28;20045;-66
2021/10/03 06:09:50;;;;;;;6.03;3.30;;;;;;;11.77;97.28;95733.25;5023702;28;20041;-66
2021/10/03 06:12:36;;;;;;;5.72;3.47;;;;;;;11.77;96.68;95724.25;5023258;28;20037;-65
2021/10/03 06:15:22;;;;;;;12.50;3.60;;;;;;;12.01;95.97;95728.88;5016785;28;20790;-66
2021/10/03 06:18:12;;;;;;;5.50;3.45;;;;;;;12.12;95.92;95731.56;5007732;28;20460;-66
2021/10/03 06:20:58;;;;;;;6.43;3.10;;;;;;;11.82;96.36;95732.84;5033238;28;20072;-65
2021/10/03 06:23:45;;;;;;;6.97;3.25;;;;;;;12.01;96.92;95725.34;5023815;28;20426;-64
2021/10/03 06:26:30;;;;;;;8.15;3.50;;;;;;;12.12;96.57;95731.56;5024811;28;20041;-65
2021/10/03 06:29:17;;;;;;;5.53;3.53;;;;;;;12.29;96.31;95727.16;5009880;28;20042;-65
2021/10/03 06:32:04;;;;;;;11.13;3.58;;;;;;;12.62;93.90;95730.47;5016150;28;20041;-64
2021/10/03 06:34:50;;;;;;;6.68;3.50;;;;;;;12.72;93.17;95734.34;5015344;28;20598;-64
2021/10/03 06:37:36;;;;;;;7.28;3.70;;;;;;;12.80;93.42;95735.81;5016721;28;20049;-64
2021/10/03 06:40:23;;;;;;;4.90;3.15;;;;;;;13.09;91.98;95747.38;5017541;28;20270;-64
2021/10/03 06:43:08;;;;;;;6.13;3.63;;;;;;;13.15;91.23;95739.47;5019290;28;20504;-65
2021/10/03 06:45:54;;;;;;;5.70;3.30;;;;;;;13.47;89.97;95738.38;5029677;28;20101;-66
2021/10/03 06:48:40;;;;;;;6.90;3.40;;;;;;;13.69;88.26;95752.72;5035053;28;20049;-66
2021/10/03 06:51:26;;;;;;;5.97;3.55;;;;;;;13.64;88.86;95756.69;5010762;28;20626;-67
2021/10/03 06:54:12;;;;;;;5.25;3.42;;;;;;;13.42;90.96;95756.13;5000397;28;20056;-66
2021/10/03 06:56:58;;;;;;;7.30;3.38;;;;;;;13.53;90.46;95740.28;5010612;28;20048;-66
2021/10/03 06:59:43;;;;;;;5.03;3.28;;;;;;;13.59;90.37;95751.63;5017211;28;20053;-66
2021/10/03 07:02:31;;;;;;;10.35;3.30;;;;;;;13.59;90.11;95748.88;5008938;28;20445;-65
2021/10/03 07:05:17;;;;;;;5.82;3.42;;;;;;;12.87;95.06;95743.25;5023121;28;20429;-66
2021/10/03 07:08:05;;;;;;;7.07;3.60;;;;;;;12.61;97.75;95750.88;5011574;28;20049;-63
2021/10/03 07:10:51;;;;;;;6.20;3.42;;;;;;;13.01;97.57;95760.38;5016909;28;20096;-65
2021/10/03 07:13:36;;;;;;;5.72;3.63;;;;;;;13.58;95.27;95755.59;5032900;28;20049;-65
2021/10/03 07:16:22;;;;;;;6.82;3.58;;;;;;;14.17;91.64;95760.00;5009482;28;22596;-64
2021/10/03 07:19:08;;;;;;;5.05;3.53;;;;;;;14.55;89.26;95759.91;5004930;28;20040;-65
2021/10/03 07:21:53;;;;;;;4.72;3.30;;;;;;;14.78;88.77;95756.41;5029932;28;20044;-64
2021/10/03 07:24:40;;;;;;;6.22;3.20;;;;;;;16.00;82.47;95753.53;5019823;28;20041;-65
2021/10/03 07:27:25;;;;;;;5.60;3.15;;;;;;;17.13;75.74;95758.97;5011842;28;20042;-65
2021/10/03 07:30:11;;;;;;;6.13;3.40;;;;;;;17.34;74.11;95766.75;5009347;28;20068;-65
2021/10/03 07:32:57;;;;;;;7.55;3.03;;;;;;;17.63;73.34;95767.97;5027435;28;20049;-65
2021/10/03 07:35:43;;;;;;;6.13;2.72;;;;;;;17.92;72.14;95771.59;5031367;28;20048;-66
2021/10/03 07:38:28;;;;;;;4.35;2.40;;;;;;;18.11;71.32;95769.09;5025974;28;20383;-66
2021/10/03 07:41:14;;;;;;;6.03;2.85;;;;;;;18.37;70.99;95774.72;5015856;28;20286;-66
2021/10/03 07:44:00;;;;;;;4.97;2.95;;;;;;;18.75;69.73;95769.19;5031974;28;20041;-65
2021/10/03 07:46:46;;;;;;;4.88;2.83;;;;;;;18.95;68.88;95757.13;5031722;28;20050;-64
2021/10/03 07:49:31;;;;;;;5.70;3.03;;;;;;;19.09;67.36;95762.22;5030105;28;20750;-65
2021/10/03 07:52:17;;;;;;;4.18;2.63;;;;;;;19.10;65.58;95764.56;5015786;28;20053;-65
2021/10/03 07:55:03;;;;;;;6.60;2.78;;;;;;;19.02;66.25;95766.00;5029787;28;20536;-65
2021/10/03 07:57:49;;;;;;;6.95;3.20;;;;;;;18.81;66.88;95766.66;5011707;28;20050;-65
2021/10/03 08:00:36;;;;;;;5.32;2.47;;;;;;;18.84;68.10;95761.00;5032058;28;20091;-65
2021/10/03 08:03:21;;;;;;;4.43;2.67;;;;;;;18.84;66.84;95763.03;5023229;28;20643;-65
2021/10/03 08:06:07;;;;;;;4.10;2.47;;;;;;;18.71;67.00;95751.91;5011960;28;20040;-63
2021/10/03 08:08:54;;;;;;;4.93;2.58;;;;;;;18.53;67.19;95758.00;5031265;28;20402;-62
2021/10/03 08:11:41;;;;;;;6.57;2.90;;;;;;;18.36;67.56;95762.81;5008321;28;20052;-64
2021/10/03 08:14:26;;;;;;;5.95;2.85;;;;;;;18.33;68.81;95761.72;5019757;28;20193;-64
2021/10/03 08:17:12;;;;;;;9.63;2.88;;;;;;;18.33;69.73;95761.72;5018542;28;20045;-64
2021/10/03 08:19:58;;;;;;;4.05;2.78;;;;;;;18.41;69.65;95761.50;5023755;28;20342;-63
2021/10/03 08:22:44;;;;;;;4.05;2.58;;;;;;;18.91;68.62;95757.25;5018770;28;20073;-65
2021/10/03 08:25:30;;;;;;;4.15;2.70;;;;;;;19.86;66.61;95750.94;5016334;28;20507;-65
2021/10/03 08:28:16;;;;;;;4.05;2.53;;;;;;;21.10;61.22;95757.81;5026556;28;20754;-63
2021/10/03 08:31:02;;;;;;;4.60;2.53;;;;;;;22.64;55.66;95758.06;5038396;28;20183;-62
2021/10/03 08:33:48;;;;;;;5.57;2.90;;;;;;;23.51;52.92;95746.34;5022404;28;20199;-67
2021/10/03 08:36:33;;;;;;;3.72;2.55;;;;;;;23.54;52.07;95743.34;5024857;28;20481;-63
2021/10/03 08:39:19;;;;;;;4.88;2.80;;;;;;;24.24;50.87;95745.75;5015293;28;20049;-67
2021/10/03 08:42:06;;;;;;;4.93;2.67;;;;;;;24.93;48.45;95753.31;5022419;28;20044;-65
2021/10/03 08:44:52;;;;;;;4.43;2.60;;;;;;;25.07;47.90;95746.13;5028919;28;20068;-63
2021/10/03 08:47:41;;;;;;;3.08;2.17;;;;;;;25.12;47.93;95751.03;5026607;28;20045;-64
2021/10/03 08:50:26;;;;;;;4.75;2.92;;;;;;;25.07;48.18;95749.69;5016868;28;20079;-65
2021/10/03 08:53:15;;;;;;;5.43;3.45;;;;;;;25.04;48.25;95745.06;5020315;28;20099;-64
2021/10/03 08:56:01;;;;;;;7.72;4.35;;;;;;;24.17;51.37;95743.34;5028565;28;20034;-63
2021/10/03 08:58:46;;;;;;;4.20;2.78;;;;;;;23.55;54.40;95747.72;5035230;28;20051;-63
2021/10/03 09:01:53;;;;;;;3.60;1.75;;;;;;;23.72;54.43;95750.06;5021520;28;20133;-63
2021/10/03 09:04:38;;;;;;;3.92;2.47;;;;;;;23.58;54.41;95757.16;5015407;28;20628;-65
2021/10/03 09:07:24;;;;;;;3.15;2.20;;;;;;;23.61;54.92;95759.00;5023172;28;20045;-63
2021/10/03 09:10:10;;;;;;;3.72;2.38;;;;;;;23.61;54.77;95753.41;5022000;28;20190;-63
2021/10/03 09:12:58;;;;;;;4.35;2.30;;;;;;;23.36;56.30;95754.66;5027107;28;20136;-64
2021/10/03 09:15:45;;;;;;;4.28;2.67;;;;;;;23.09;56.97;95753.56;5030593;28;20044;-64
2021/10/03 09:18:39;;;;;;;11.93;7.60;;;;;;;22.91;58.42;95757.94;5013562;28;20524;-64
2021/10/03 09:21:30;;;;;;;4.80;3.30;;;;;;;22.52;61.73;95754.97;5011247;28;20060;-63
2021/10/03 09:24:20;;;;;;;6.15;3.28;;;;;;;21.91;64.48;95751.31;5022028;28;20033;-64
2021/10/03 09:27:07;;;;;;;9.00;4.50;;;;;;;21.68;67.34;95761.03;5023490;28;20044;-63
2021/10/03 09:30:05;;;;;;;5.38;3.38;;;;;;;21.24;69.39;95759.25;5014760;28;20044;-63
2021/10/03 09:32:59;;;;;;;5.57;2.90;;;;;;;20.75;70.74;95763.56;5027370;28;20134;-63
2021/10/03 09:35:55;;;;;;;8.50;3.00;;;;;;;20.92;69.48;95764.13;5020595;28;20076;-63
2021/10/03 09:38:52;;;;;;;3.88;2.30;;;;;;;20.77;69.17;95758.31;5026892;28;20045;-65
2021/10/03 09:41:41;;;;;;;5.97;2.60;;;;;;;20.72;70.30;95756.13;5022671;28;20086;-60
2021/10/03 09:44:26;;;;;;;4.93;2.90;;;;;;;20.69;70.51;95759.84;5012523;28;20041;-61
2021/10/03 09:47:12;;;;;;;5.32;3.15;;;;;;;20.35;71.76;95752.38;5004110;28;20044;-61
2021/10/03 09:49:58;;;;;;;9.85;2.85;;;;;;;20.22;72.06;95752.41;5035180;28;20464;-61
2021/10/03 09:52:44;;;;;;;4.47;2.58;;;;;;;20.16;71.22;95751.47;5013433;28;20119;-64
2021/10/03 09:55:30;;;;;;;4.80;2.92;;;;;;;20.10;70.52;95754.06;5015462;28;20100;-63
2021/10/03 09:58:17;;;;;;;5.78;2.50;;;;;;;20.00;70.07;95750.41;5012443;28;20569;-64
2021/10/03 10:01:03;;;;;;;3.55;2.47;;;;;;;19.95;69.78;95739.91;5017544;28;20050;-64
2021/10/03 10:03:50;;;;;;;6.40;3.15;;;;;;;19.40;73.93;95739.41;5015873;28;20088;-65
2021/10/03 10:06:36;;;;;;;5.43;3.00;;;;;;;19.00;76.78;95739.94;5013858;28;20073;-68
2021/10/03 10:09:23;;;;;;;6.18;2.92;;;;;;;19.13;77.55;95746.22;5007645;28;20125;-64
2021/10/03 10:12:25;;;;;;;6.97;3.15;;;;;;;19.53;76.52;95733.81;5004955;28;20435;-63
2021/10/03 10:15:12;;;;;;;5.30;2.85;;;;;;;19.73;76.23;95741.84;5010856;28;20056;-63
2021/10/03 10:18:22;;;;;;;10.02;4.07;;;;;;;19.81;74.93;95730.06;5014180;28;20045;-62
2021/10/03 10:21:23;;;;;;;8.57;5.60;;;;;;;18.86;76.70;95728.06;5005099;28;20045;-62
2021/10/03 10:24:46;;;;;;;9.20;4.93;;;;;;;18.51;79.23;95739.00;5009395;28;20175;-63
2021/10/03 10:27:32;;;;;;;7.45;3.30;;;;;;;18.90;79.03;95736.25;5012640;28;20455;-63
2021/10/03 10:30:18;;;;;;;6.45;3.25;;;;;;;19.34;77.15;95732.84;5009745;28;20753;-63
2021/10/03 10:33:10;;;;;;;9.35;4.05;;;;;;;19.78;74.24;95733.75;5009476;28;20104;-63
2021/10/03 10:36:16;;;;;;;5.30;2.92;;;;;;;19.92;73.80;95731.69;5011945;28;20060;-64
2021/10/03 10:39:08;;;;;;;5.05;2.72;;;;;;;20.02;73.22;95724.94;5013126;28;20048;-66
2021/10/03 10:42:00;;;;;;;5.95;3.50;;;;;;;20.21;72.85;95723.84;5011840;28;20045;-64
2021/10/03 10:44:47;;;;;;;9.38;3.03;;;;;;;20.02;73.65;95728.53;5021216;28;20655;-64
2021/10/03 10:47:33;;;;;;;5.00;2.75;;;;;;;20.07;73.76;95723.59;5014894;28;20089;-64
2021/10/03 10:50:22;;;;;;;7.82;4.15;;;;;;;20.43;71.27;95712.69;5023936;28;20040;-64
2021/10/03 10:53:34;;;;;;;6.03;3.78;;;;;;;21.10;69.65;95720.84;5021248;28;20044;-64
2021/10/03 10:56:27;;;;;;;5.32;2.75;;;;;;;21.55;67.37;95728.56;5020259;28;20121;-64
2021/10/03 10:59:13;;;;;;;7.07;3.38;;;;;;;21.99;67.36;95721.13;5011655;28;20076;-64
2021/10/03 11:01:59;;;;;;;6.32;2.95;;;;;;;22.71;64.96;95710.28;5016431;28;20080;-64
2021/10/03 11:04:44;;;;;;;4.75;2.75;;;;;;;23.18;62.18;95705.25;5024708;28;20041;-64
2021/10/03 11:08:08;;;;;;;9.52;2.80;;;;;;;22.86;64.33;95705.53;5024217;28;20049;-64
2021/10/03 11:11:00;;;;;;;3.10;2.10;;;;;;;23.13;63.61;95700.31;5015958;28;20092;-65
2021/10/03 11:13:53;;;;;;;5.00;2.63;;;;;;;23.55;61.95;95691.81;5017164;28;20056;-64
2021/10/03 11:16:46;;;;;;;4.25;2.47;;;;;;;23.70;61.33;95700.22;5025312;28;20042;-64
2021/10/03 11:19:38;;;;;;;5.63;3.00;;;;;;;23.54;59.47;95704.22;5021151;28;20049;-65
2021/10/03 11:22:24;;;;;;;3.58;2.38;;;;;;;22.98;61.79;95701.00;5011490;28;20497;-64
2021/10/03 11:25:16;;;;;;;5.00;2.50;;;;;;;23.36;60.05;95693.97;5008752;28;20073;-64
2021/10/03 11:28:02;;;;;;;7.43;2.95;;;;;;;23.11;59.59;95684.03;5021984;28;20136;-64
2021/10/03 11:30:54;;;;;;;3.95;2.53;;;;;;;22.41;63.54;95693.31;5033672;28;20041;-62
2021/10/03 11:33:48;;;;;;;5.72;2.80;;;;;;;22.87;61.69;95693.13;5006345;28;20044;-62
2021/10/03 11:36:50;;;;;;;5.07;2.80;;;;;;;23.21;60.00;95693.13;5017071;28;20072;-62
2021/10/03 11:39:46;;;;;;;5.10;2.50;;;;;;;23.04;59.72;95687.94;5015172;28;20037;-62
2021/10/03 11:42:40;;;;;;;4.55;2.70;;;;;;;23.16;59.21;95682.63;5018351;28;20055;-64
2021/10/03 11:45:28;;;;;;;4.85;2.83;;;;;;;23.36;58.95;95682.03;5014864;28;20049;-64
2021/10/03 11:48:13;;;;;;;3.08;2.13;;;;;;;23.37;58.45;95684.34;5009459;28;20041;-64
2021/10/03 11:51:00;;;;;;;3.47;2.17;;;;;;;23.15;59.71;95681.06;5014312;28;20049;-63
2021/10/03 11:53:49;;;;;;;4.90;2.60;;;;;;;23.39;59.32;95684.63;5026093;28;20216;-63
2021/10/03 11:56:35;;;;;;;4.17;2.60;;;;;;;23.80;59.03;95670.97;5025698;28;20124;-63
2021/10/03 11:59:21;;;;;;;4.18;2.50;;;;;;;22.79;61.06;95669.59;4995098;28;20053;-64
2021/10/03 12:02:15;;;;;;;16.77;9.98;;;;;;;22.41;63.62;95673.00;5015059;28;20045;-64
2021/10/03 12:05:02;;;;;;;4.75;2.63;;;;;;;22.71;64.02;95669.16;5034951;28;20177;-64
2021/10/03 12:08:09;;;;;;;6.93;2.50;;;;;;;22.97;63.27;95662.38;5002023;28;20049;-64
2021/10/03 12:11:03;;;;;;;5.88;2.10;;;;;;;22.85;60.24;95664.13;4996846;28;20050;-63
2021/10/03 12:13:56;;;;;;;6.28;1.90;;;;;;;22.59;56.88;95661.78;5028142;28;20041;-64
2021/10/03 12:16:52;;;;;;;5.97;1.90;;;;;;;22.42;59.85;95666.19;5033615;28;20057;-63
2021/10/03 12:20:11;;;;;;;3.13;1.63;;;;;;;22.21;59.72;95663.13;5028730;28;20136;-62
2021/10/03 12:22:57;;;;;;;4.60;2.10;;;;;;;22.25;59.58;95666.50;4991261;28;20049;-63
2021/10/03 12:25:43;;;;;;;3.00;1.95;;;;;;;22.53;59.10;95663.69;5018602;28;20064;-63
2021/10/03 12:28:59;;;;;;;3.20;1.65;;;;;;;22.88;54.53;95663.94;4998012;28;20330;-62
2021/10/03 12:31:53;;;;;;;2.83;1.40;;;;;;;22.47;56.04;95677.50;5024814;28;20045;-62
2021/10/03 12:34:41;;;;;;;2.00;1.35;;;;;;;22.19;55.93;95670.44;5027005;28;20049;-63
2021/10/03 12:37:32;;;;;;;3.25;1.20;;;;;;;22.76;52.69;95667.75;5013658;28;20048;-62
2021/10/03 12:40:21;;;;;;;3.00;1.65;;;;;;;22.46;53.11;95659.19;5014473;28;20565;-63
2021/10/03 12:43:07;;;;;;;3.67;1.58;;;;;;;22.17;52.48;95656.19;5023539;28;20037;-62
2021/10/03 12:45:52;;;;;;;2.22;1.20;;;;;;;22.42;52.17;95657.81;5031024;28;20048;-63
2021/10/03 12:48:38;;;;;;;1.70;1.20;;;;;;;22.65;52.56;95662.69;5023887;28;20048;-65
2021/10/03 12:51:24;;;;;;;2.38;1.50;;;;;;;23.01;51.93;95658.16;5033554;28;20542;-62
2021/10/03 12:54:09;;;;;;;2.42;1.33;;;;;;;23.13;52.46;95661.97;5017223;28;20053;-63
2021/10/03 12:56:56;;;;;;;2.92;1.35;;;;;;;22.91;53.47;95660.22;5025487;28;20133;-64
2021/10/03 12:59:42;;;;;;;2.30;1.60;;;;;;;22.47;54.98;95662.75;5033059;28;20075;-62
2021/10/03 13:02:28;;;;;;;1.63;1.13;;;;;;;22.59;54.37;95661.78;5015351;28;20048;-63
2021/10/03 13:05:16;;;;;;;2.63;1.20;;;;;;;22.76;53.22;95658.59;5015589;28;20109;-65
2021/10/03 13:08:02;;;;;;;6.43;1.48;;;;;;;22.79;53.62;95652.06;5034637;28;20045;-64